createdAt,value
2019-01-08T00:00:50.006Z,34.6
2019-01-08T00:02:50.074Z,34.8
2019-01-08T00:04:49.566Z,34.6
2019-01-08T00:06:49.779Z,34.0
2019-01-08T00:08:49.729Z,34.5
2019-01-08T00:10:49.647Z,34.5
2019-01-08T00:12:49.736Z,35.5
2019-01-08T00:14:49.710Z,32.1
2019-01-08T00:16:49.941Z,31.5
2019-01-08T00:18:50.000Z,31.0
2019-01-08T00:20:49.965Z,31.0
2019-01-08T00:22:50.012Z,33.5
2019-01-08T00:24:49.989Z,31.9
2019-01-08T00:26:50.185Z,28.5
2019-01-08T00:28:50.139Z,28.5
2019-01-08T00:30:50.136Z,33.0
2019-01-08T00:32:50.105Z,30.7
2019-01-08T00:34:49.532Z,31.0
2019-01-08T00:36:49.744Z,30.8
2019-01-08T00:38:49.773Z,30.8
2019-01-08T00:40:49.860Z,32.4
2019-01-08T00:42:49.854Z,29.6
2019-01-08T00:44:49.825Z,30.0
2019-01-08T00:46:50.018Z,30.0
2019-01-08T00:48:50.032Z,30.3
2019-01-08T00:50:50.049Z,29.3
2019-01-08T00:52:50.059Z,26.1
2019-01-08T00:54:49.990Z,26.2
2019-01-08T00:56:50.223Z,26.2
2019-01-08T00:58:51.580Z,25.9
2019-01-08T01:00:49.921Z,26.6
2019-01-08T01:02:49.954Z,27.0
2019-01-08T01:04:50.225Z,25.3
2019-01-08T01:06:49.526Z,25.3
2019-01-08T01:08:49.559Z,25.4
2019-01-08T01:10:49.573Z,27.2
2019-01-08T01:12:49.606Z,25.8
2019-01-08T01:14:49.699Z,25.9
2019-01-08T01:16:49.856Z,25.9
2019-01-08T01:18:49.868Z,28.1
2019-01-08T01:20:49.891Z,26.2
2019-01-08T01:22:49.897Z,26.2
2019-01-08T01:24:49.866Z,26.7
2019-01-08T01:26:50.087Z,26.7
2019-01-08T01:28:50.083Z,26.1
2019-01-08T01:30:50.025Z,23.5
2019-01-08T01:32:49.996Z,22.2
2019-01-08T01:34:50.323Z,22.7
2019-01-08T01:36:49.573Z,22.7
2019-01-08T01:38:49.573Z,19.7
2019-01-08T01:40:49.600Z,21.3
2019-01-08T01:42:49.590Z,19.8
2019-01-08T01:44:49.600Z,20.3
2019-01-08T01:46:49.820Z,20.3
2019-01-08T01:48:49.843Z,21.8
2019-01-08T01:50:49.864Z,20.3
2019-01-08T01:52:49.864Z,19.2
2019-01-08T01:54:49.799Z,19.2
2019-01-08T01:56:49.940Z,16.7
2019-01-08T01:58:49.940Z,17.6
2019-01-08T02:00:49.934Z,16.3
2019-01-08T02:02:49.977Z,15.8
2019-01-08T02:04:49.429Z,15.8
2019-01-08T02:06:49.732Z,14.5
2019-01-08T02:08:49.727Z,13.6
2019-01-08T02:10:49.671Z,14.3
2019-01-08T02:12:49.662Z,13.0
2019-01-08T02:14:49.985Z,13.0
2019-01-08T02:16:50.137Z,13.2
2019-01-08T02:18:50.186Z,13.0
2019-01-08T02:20:50.213Z,13.0
2019-01-08T02:22:50.322Z,12.6
2019-01-08T02:24:50.429Z,12.6
2019-01-08T02:26:49.762Z,12.1
2019-01-08T02:28:49.800Z,12.4
2019-01-08T02:30:49.781Z,12.4
2019-01-08T02:32:49.817Z,12.0
2019-01-08T02:34:50.046Z,12.0
2019-01-08T02:36:50.140Z,10.6
2019-01-08T02:38:50.114Z,11.9
2019-01-08T02:40:50.178Z,11.0
2019-01-08T02:42:50.145Z,11.3
2019-01-08T02:44:50.154Z,11.3
2019-01-08T02:46:50.266Z,11.5
2019-01-08T02:48:50.227Z,11.4
2019-01-08T02:50:50.275Z,11.4
2019-01-08T02:52:50.266Z,10.8
2019-01-08T02:54:50.408Z,10.8
2019-01-08T02:56:50.078Z,11.8
2019-01-08T02:58:50.122Z,11.8
2019-01-08T03:00:50.100Z,11.6
2019-01-08T03:02:50.092Z,11.6
2019-01-08T03:04:49.487Z,12.3
2019-01-08T03:06:49.936Z,12.5
2019-01-08T03:08:50.336Z,11.8
2019-01-08T03:10:50.369Z,11.9
2019-01-08T03:12:50.367Z,11.9
2019-01-08T03:14:50.334Z,10.8
2019-01-08T03:16:49.612Z,10.6
2019-01-08T03:18:49.628Z,8.7
2019-01-08T03:20:49.759Z,8.7
2019-01-08T03:22:49.667Z,9.9
2019-01-08T03:24:49.648Z,9.1
2019-01-08T03:26:49.928Z,7.8
2019-01-08T03:28:49.920Z,7.8
2019-01-08T03:30:49.929Z,8.0
2019-01-08T03:32:49.916Z,7.7
2019-01-08T03:34:50.266Z,7.3
2019-01-08T03:36:49.538Z,7.2
2019-01-08T03:38:49.580Z,7.2
2019-01-08T03:40:49.504Z,7.5
2019-01-08T03:42:49.613Z,7.3
2019-01-08T03:44:49.601Z,6.7
2019-01-08T03:46:49.876Z,7.1
2019-01-08T03:48:49.852Z,7.1
2019-01-08T03:50:49.787Z,6.3
2019-01-08T03:52:49.791Z,5.7
2019-01-08T03:54:49.743Z,6.1
2019-01-08T03:56:50.055Z,5.5
2019-01-08T03:58:49.978Z,5.5
2019-01-08T04:00:50.014Z,5.2
2019-01-08T04:02:50.015Z,5.2
2019-01-08T04:04:50.397Z,5.0
2019-01-08T04:06:49.649Z,5.0
2019-01-08T04:08:49.657Z,4.8
2019-01-08T04:10:49.723Z,4.8
2019-01-08T04:12:49.712Z,4.5
2019-01-08T04:14:49.689Z,4.7
2019-01-08T04:16:49.811Z,4.7
2019-01-08T04:18:49.941Z,4.1
2019-01-08T04:20:49.900Z,4.1
2019-01-08T04:22:49.944Z,4.7
2019-01-08T04:24:49.974Z,4.2
2019-01-08T04:26:50.171Z,4.2
2019-01-08T04:28:50.158Z,4.2
2019-01-08T04:30:50.098Z,3.6
2019-01-08T04:32:50.154Z,4.2
2019-01-08T04:34:50.393Z,3.7
2019-01-08T04:36:49.711Z,3.6
2019-01-08T04:38:49.693Z,3.6
2019-01-08T04:40:49.636Z,3.7
2019-01-08T04:42:49.670Z,3.6
2019-01-08T04:44:49.691Z,3.9
2019-01-08T04:46:49.861Z,3.9
2019-01-08T04:48:49.890Z,3.5
2019-01-08T04:50:49.903Z,3.8
2019-01-08T04:52:49.864Z,3.3
2019-01-08T04:54:49.854Z,3.9
2019-01-08T04:56:50.173Z,3.9
2019-01-08T04:58:50.114Z,3.6
2019-01-08T05:00:50.110Z,4.4
2019-01-08T05:02:50.140Z,4.0
2019-01-08T05:04:49.462Z,4.0
2019-01-08T05:06:49.752Z,7.3
2019-01-08T05:08:49.682Z,4.0
2019-01-08T05:10:49.629Z,3.9
2019-01-08T05:12:49.765Z,3.8
2019-01-08T05:14:49.770Z,3.7
2019-01-08T05:16:49.979Z,3.7
2019-01-08T05:18:50.031Z,3.8
2019-01-08T05:20:50.030Z,3.5
2019-01-08T05:22:50.213Z,4.3
2019-01-08T05:24:50.189Z,3.8
2019-01-08T05:26:49.929Z,3.8
2019-01-08T05:28:49.900Z,4.0
2019-01-08T05:30:49.886Z,4.0
2019-01-08T05:32:49.887Z,4.1
2019-01-08T05:34:50.240Z,4.1
2019-01-08T05:36:49.511Z,3.9
2019-01-08T05:38:49.582Z,3.8
2019-01-08T05:40:49.555Z,4.0
2019-01-08T05:42:49.565Z,3.6
2019-01-08T05:44:49.665Z,3.4
2019-01-08T05:46:49.709Z,3.4
2019-01-08T05:48:49.806Z,3.7
2019-01-08T05:50:49.819Z,3.7
2019-01-08T05:52:49.842Z,3.7
2019-01-08T05:54:49.836Z,3.7
2019-01-08T05:56:50.045Z,4.0
2019-01-08T05:58:50.049Z,3.6
2019-01-08T06:00:50.036Z,3.8
2019-01-08T06:02:49.995Z,3.9
2019-01-08T06:04:50.273Z,3.9
2019-01-08T06:06:49.523Z,3.8
2019-01-08T06:08:49.550Z,3.3
2019-01-08T06:10:49.610Z,3.6
2019-01-08T06:12:49.665Z,3.5
2019-01-08T06:14:49.781Z,3.5
2019-01-08T06:16:49.949Z,3.5
2019-01-08T06:18:49.966Z,3.5
2019-01-08T06:20:49.904Z,3.4
2019-01-08T06:22:49.841Z,3.4
2019-01-08T06:24:49.849Z,3.6
2019-01-08T06:26:50.150Z,3.5
2019-01-08T06:28:50.147Z,3.4
2019-01-08T06:30:50.053Z,3.5
2019-01-08T06:32:49.982Z,3.5
2019-01-08T06:34:49.438Z,3.1
2019-01-08T06:36:50.287Z,3.1
2019-01-08T06:38:50.283Z,3.7
2019-01-08T06:40:57.437Z,3.8
2019-01-08T06:42:50.092Z,3.8
2019-01-08T06:44:50.082Z,3.4
2019-01-08T06:46:50.218Z,3.9
2019-01-08T06:48:50.216Z,3.8
2019-01-08T06:50:55.955Z,3.8
2019-01-08T06:52:49.606Z,4.2
2019-01-08T06:54:49.576Z,3.6
2019-01-08T06:56:49.770Z,4.0
2019-01-08T06:58:49.846Z,4.3
2019-01-08T07:00:49.889Z,4.1
2019-01-08T07:02:49.853Z,4.1
2019-01-08T07:04:50.087Z,4.6
2019-01-08T07:06:50.353Z,4.7
2019-01-08T07:08:50.373Z,5.1
2019-01-08T07:10:49.439Z,4.8
2019-01-08T07:12:49.485Z,4.8
2019-01-08T07:14:49.478Z,6.8
2019-01-08T07:16:49.548Z,6.3
2019-01-08T07:18:49.557Z,5.4
2019-01-08T07:20:49.625Z,5.4
2019-01-08T07:22:49.606Z,4.8
2019-01-08T07:24:49.672Z,4.6
2019-01-08T07:26:49.915Z,4.6
2019-01-08T07:28:49.933Z,4.6
2019-01-08T07:30:49.976Z,4.7
2019-01-08T07:32:49.977Z,4.7
2019-01-08T07:34:50.305Z,6.3
2019-01-08T07:36:49.513Z,4.7
2019-01-08T07:38:49.447Z,4.7
2019-01-08T07:40:49.450Z,4.8
2019-01-08T07:42:49.562Z,5.4
2019-01-08T07:44:49.526Z,5.7
2019-01-08T07:46:49.745Z,5.7
2019-01-08T07:48:49.717Z,7.7
2019-01-08T07:50:49.728Z,7.7
2019-01-08T07:52:49.766Z,5.1
2019-01-08T07:54:49.828Z,5.6
2019-01-08T07:56:50.081Z,4.7
2019-01-08T07:58:50.051Z,6.8
2019-01-08T08:00:50.353Z,6.8
2019-01-08T08:02:50.341Z,4.8
2019-01-08T08:04:49.734Z,5.0
2019-01-08T08:06:49.937Z,5.0
2019-01-08T08:08:49.890Z,6.0
2019-01-08T08:10:49.912Z,6.2
2019-01-08T08:12:49.938Z,4.1
2019-01-08T08:14:49.882Z,4.5
2019-01-08T08:16:50.138Z,4.5
2019-01-08T08:18:50.132Z,4.8
2019-01-08T08:20:50.119Z,4.8
2019-01-08T08:22:50.075Z,4.5
2019-01-08T08:24:50.191Z,6.5
2019-01-08T08:26:50.325Z,6.8
2019-01-08T08:28:50.380Z,6.8
2019-01-08T08:30:58.310Z,5.2
2019-01-08T08:32:50.158Z,7.4
2019-01-08T08:34:49.575Z,7.3
2019-01-08T08:36:49.765Z,6.4
2019-01-08T08:38:49.740Z,6.4
2019-01-08T08:40:49.673Z,6.4
2019-01-08T08:42:49.703Z,7.7
2019-01-08T08:44:49.656Z,7.7
2019-01-08T08:46:49.828Z,7.9
2019-01-08T08:48:49.831Z,7.9
2019-01-08T08:50:49.781Z,5.6
2019-01-08T08:52:49.828Z,8.0
2019-01-08T08:54:49.817Z,6.6
2019-01-08T08:56:49.926Z,8.8
2019-01-08T08:58:49.901Z,8.8
2019-01-08T09:00:49.853Z,6.7
2019-01-08T09:02:49.886Z,6.7
2019-01-08T09:04:50.182Z,5.8
2019-01-08T09:06:50.329Z,5.8
2019-01-08T09:08:50.350Z,6.8
2019-01-08T09:10:50.295Z,6.1
2019-01-08T09:12:49.449Z,6.8
2019-01-08T09:14:50.409Z,6.8
2019-01-08T09:16:49.557Z,7.3
2019-01-08T09:18:49.638Z,5.3
2019-01-08T09:20:49.621Z,8.3
2019-01-08T09:22:49.610Z,6.8
2019-01-08T09:24:49.638Z,7.0
2019-01-08T09:26:49.847Z,7.0
2019-01-08T09:28:49.796Z,6.5
2019-01-08T09:30:49.822Z,7.1
2019-01-08T09:32:49.713Z,7.1
2019-01-08T09:34:50.113Z,7.2
2019-01-08T09:36:50.414Z,7.2
2019-01-08T09:38:50.477Z,5.5
2019-01-08T09:40:49.434Z,6.7
2019-01-08T09:42:49.513Z,6.6
2019-01-08T09:44:49.447Z,6.9
2019-01-08T09:46:49.705Z,6.9
2019-01-08T09:48:49.687Z,6.5
2019-01-08T09:50:49.707Z,5.2
2019-01-08T09:52:49.678Z,6.7
2019-01-08T09:54:49.701Z,5.3
2019-01-08T09:56:49.844Z,5.3
2019-01-08T09:58:49.790Z,9.7
2019-01-08T10:00:49.786Z,4.8
2019-01-08T10:02:49.780Z,6.6
2019-01-08T10:04:50.063Z,6.6
2019-01-08T10:06:50.219Z,5.2
2019-01-08T10:08:50.119Z,5.7
2019-01-08T10:10:50.175Z,5.7
2019-01-08T10:12:50.315Z,4.5
2019-01-08T10:14:50.243Z,4.5
2019-01-08T10:16:49.462Z,5.2
2019-01-08T10:18:49.519Z,6.3
2019-01-08T10:20:49.547Z,5.3
2019-01-08T10:22:49.591Z,5.4
2019-01-08T10:24:49.585Z,5.4
2019-01-08T10:26:49.882Z,5.2
2019-01-08T10:28:49.880Z,6.1
2019-01-08T10:30:49.978Z,5.5
2019-01-08T10:32:49.925Z,7.8
2019-01-08T10:34:50.203Z,7.8
2019-01-08T10:36:50.393Z,5.5
2019-01-08T10:38:50.427Z,6.2
2019-01-08T10:40:49.543Z,5.2
2019-01-08T10:42:49.575Z,5.2
2019-01-08T10:44:49.612Z,4.8
2019-01-08T10:46:49.802Z,5.7
2019-01-08T10:48:49.840Z,5.4
2019-01-08T10:50:49.819Z,3.8
2019-01-08T10:52:49.833Z,3.8
2019-01-08T10:54:49.766Z,6.2
2019-01-08T10:56:49.893Z,4.9
2019-01-08T10:58:49.921Z,7.7
2019-01-08T11:00:50.030Z,7.7
2019-01-08T11:02:50.019Z,5.3
2019-01-08T11:04:50.291Z,4.8
2019-01-08T11:06:49.506Z,7.9
2019-01-08T11:08:49.596Z,4.6
2019-01-08T11:10:49.614Z,5.5
2019-01-08T11:12:49.662Z,5.5
2019-01-08T11:14:49.671Z,6.1
2019-01-08T11:16:50.598Z,5.4
2019-01-08T11:18:49.694Z,6.0
2019-01-08T11:20:49.660Z,7.2
2019-01-08T11:22:49.659Z,7.2
2019-01-08T11:24:49.679Z,5.8
2019-01-08T11:26:49.715Z,6.2
2019-01-08T11:28:49.836Z,4.7
2019-01-08T11:30:49.851Z,5.8
2019-01-08T11:32:49.817Z,5.8
2019-01-08T11:34:50.124Z,6.9
2019-01-08T11:36:50.287Z,7.6
2019-01-08T11:38:50.318Z,7.6
2019-01-08T11:40:50.405Z,7.9
2019-01-08T11:42:50.317Z,7.9
2019-01-08T11:44:50.304Z,7.0
2019-01-08T11:46:49.615Z,6.6
2019-01-08T11:48:49.690Z,7.9
2019-01-08T11:50:49.663Z,7.9
2019-01-08T11:52:49.662Z,5.6
2019-01-08T11:54:49.682Z,5.3
2019-01-08T11:56:49.879Z,5.3
2019-01-08T11:58:49.897Z,7.3
2019-01-08T12:00:49.893Z,7.3
2019-01-08T12:02:49.888Z,7.0
2019-01-08T12:04:50.023Z,4.4
2019-01-08T12:06:50.313Z,4.4
2019-01-08T12:08:50.359Z,5.4
2019-01-08T12:10:50.292Z,5.9
2019-01-08T12:12:50.265Z,6.9
2019-01-08T12:14:50.221Z,9.6
2019-01-08T12:16:49.466Z,7.4
2019-01-08T12:18:50.426Z,7.4
2019-01-08T12:20:49.455Z,5.2
2019-01-08T12:22:49.493Z,7.8
2019-01-08T12:24:49.559Z,8.3
2019-01-08T12:26:49.826Z,8.1
2019-01-08T12:28:49.841Z,6.9
2019-01-08T12:30:49.785Z,6.9
2019-01-08T12:32:49.743Z,5.7
2019-01-08T12:34:49.992Z,6.5
2019-01-08T12:36:50.212Z,7.8
2019-01-08T12:38:50.259Z,7.8
2019-01-08T12:40:50.254Z,4.8
2019-01-08T12:42:50.305Z,5.9
2019-01-08T12:44:50.274Z,6.0
2019-01-08T12:46:49.477Z,6.7
2019-01-08T12:48:49.473Z,6.7
2019-01-08T12:50:49.498Z,5.7
2019-01-08T12:52:49.494Z,4.2
2019-01-08T12:54:49.556Z,3.4
2019-01-08T12:56:49.770Z,3.4
2019-01-08T12:58:49.713Z,5.9
2019-01-08T13:00:49.715Z,3.7
2019-01-08T13:02:49.721Z,5.7
2019-01-08T13:04:49.989Z,5.6
2019-01-08T13:06:50.198Z,6.6
2019-01-08T13:08:50.150Z,6.6
2019-01-08T13:10:50.163Z,5.8
2019-01-08T13:12:50.124Z,4.0
2019-01-08T13:14:50.053Z,4.9
2019-01-08T13:16:50.261Z,4.9
2019-01-08T13:18:50.217Z,4.6
2019-01-08T13:20:50.178Z,4.4
2019-01-08T13:22:50.116Z,4.0
2019-01-08T13:24:50.208Z,4.0
2019-01-08T13:26:50.400Z,4.0
2019-01-08T13:28:50.386Z,3.4
2019-01-08T13:30:50.428Z,6.1
2019-01-08T13:32:49.435Z,4.1
2019-01-08T13:34:49.777Z,4.8
2019-01-08T13:36:50.004Z,4.8
2019-01-08T13:38:50.037Z,5.5
2019-01-08T13:40:50.028Z,4.9
2019-01-08T13:42:49.999Z,4.9
2019-01-08T13:44:49.952Z,4.1
2019-01-08T13:46:50.135Z,4.7
2019-01-08T13:48:50.127Z,5.5
2019-01-08T13:50:50.126Z,4.8
2019-01-08T13:52:50.086Z,2.8
2019-01-08T13:54:50.102Z,4.8
2019-01-08T13:56:50.279Z,4.8
2019-01-08T13:58:50.306Z,4.6
2019-01-08T14:00:50.348Z,3.4
2019-01-08T14:02:50.363Z,3.4
2019-01-08T14:04:49.619Z,4.9
2019-01-08T14:06:49.821Z,4.9
2019-01-08T14:08:49.880Z,4.5
2019-01-08T14:10:56.377Z,4.1
2019-01-08T14:12:51.495Z,3.7
2019-01-08T14:14:49.654Z,3.7
2019-01-08T14:16:49.747Z,5.0
2019-01-08T14:18:49.859Z,3.7
2019-01-08T14:20:49.820Z,3.2
2019-01-08T14:22:49.812Z,3.6
2019-01-08T14:24:49.812Z,3.6
2019-01-08T14:26:50.169Z,3.1
2019-01-08T14:28:50.193Z,4.2
2019-01-08T14:30:50.173Z,3.6
2019-01-08T14:32:50.243Z,4.5
2019-01-08T14:34:49.452Z,4.5
2019-01-08T14:36:49.710Z,4.7
2019-01-08T14:38:49.695Z,4.8
2019-01-08T14:40:49.632Z,4.8
2019-01-08T14:42:49.691Z,4.2
2019-01-08T14:44:49.699Z,4.2
2019-01-08T14:46:49.859Z,3.6
2019-01-08T14:48:49.837Z,3.1
2019-01-08T14:50:49.893Z,2.7
2019-01-08T14:52:49.849Z,3.8
2019-01-08T14:54:49.822Z,3.8
2019-01-08T14:56:49.944Z,2.7
2019-01-08T14:58:49.960Z,2.9
2019-01-08T15:00:49.937Z,3.7
2019-01-08T15:02:49.993Z,3.7
2019-01-08T15:04:50.200Z,3.7
2019-01-08T15:06:50.302Z,4.8
2019-01-08T15:08:49.528Z,4.8
2019-01-08T15:10:49.477Z,4.6
2019-01-08T15:12:49.484Z,4.6
2019-01-08T15:14:50.514Z,4.0
2019-01-08T15:16:49.882Z,3.2
2019-01-08T15:18:49.953Z,3.5
2019-01-08T15:20:49.928Z,3.5
2019-01-08T15:22:49.873Z,3.5
2019-01-08T15:24:49.954Z,2.9
2019-01-08T15:26:50.079Z,3.5
2019-01-08T15:28:50.086Z,3.5
2019-01-08T15:30:50.060Z,4.2
2019-01-08T15:32:57.973Z,4.2
2019-01-08T15:34:50.086Z,2.4
2019-01-08T15:36:50.314Z,2.3
2019-01-08T15:38:50.239Z,2.3
2019-01-08T15:40:50.233Z,1.8
2019-01-08T15:42:50.230Z,1.8
2019-01-08T15:44:50.162Z,2.4
2019-01-08T15:46:50.432Z,4.5
2019-01-08T15:48:49.487Z,2.9
2019-01-08T15:50:50.417Z,2.9
2019-01-08T15:52:49.431Z,3.8
2019-01-08T15:54:49.492Z,3.7
2019-01-08T15:56:49.689Z,4.3
2019-01-08T15:58:49.642Z,3.4
2019-01-08T16:00:49.749Z,3.4
2019-01-08T16:02:49.922Z,2.6
2019-01-08T16:04:50.097Z,2.3
2019-01-08T16:06:50.214Z,2.3
2019-01-08T16:08:50.238Z,2.7
2019-01-08T16:10:50.315Z,2.7
2019-01-08T16:12:50.252Z,2.9
2019-01-08T16:14:50.249Z,2.8
2019-01-08T16:16:49.473Z,2.7
2019-01-08T16:18:49.459Z,2.7
2019-01-08T16:20:49.484Z,2.7
2019-01-08T16:22:49.458Z,3.1
2019-01-08T16:24:49.476Z,2.8
2019-01-08T16:26:49.755Z,2.4
2019-01-08T16:28:49.731Z,2.4
2019-01-08T16:30:49.701Z,3.9
2019-01-08T16:32:49.721Z,2.7
2019-01-08T16:34:49.873Z,3.6
2019-01-08T16:36:50.003Z,3.6
2019-01-08T16:38:50.050Z,3.0
2019-01-08T16:40:50.029Z,2.8
2019-01-08T16:42:50.100Z,3.7
2019-01-08T16:44:50.033Z,3.8
2019-01-08T16:46:50.124Z,3.3
2019-01-08T16:48:50.137Z,3.3
2019-01-08T16:50:50.165Z,4.6
2019-01-08T16:52:50.273Z,4.1
2019-01-08T16:54:50.272Z,4.1
2019-01-08T16:56:49.456Z,3.2
2019-01-08T16:58:49.453Z,3.2
2019-01-08T17:00:49.591Z,4.4
2019-01-08T17:02:49.524Z,5.4
2019-01-08T17:04:50.014Z,5.4
2019-01-08T17:06:50.137Z,5.7
2019-01-08T17:08:50.090Z,6.1
2019-01-08T17:10:50.094Z,6.8
2019-01-08T17:12:50.030Z,4.9
2019-01-08T17:14:50.077Z,5.8
2019-01-08T17:16:50.181Z,5.8
2019-01-08T17:18:50.272Z,6.0
2019-01-08T17:20:50.322Z,5.6
2019-01-08T17:22:50.301Z,7.3
2019-01-08T17:24:50.279Z,4.8
2019-01-08T17:26:49.446Z,4.8
2019-01-08T17:28:49.502Z,5.2
2019-01-08T17:30:49.537Z,6.2
2019-01-08T17:32:49.569Z,6.2
2019-01-08T17:34:49.934Z,5.1
2019-01-08T17:36:50.090Z,5.1
2019-01-08T17:38:50.098Z,6.5
2019-01-08T17:40:50.146Z,6.7
2019-01-08T17:42:50.145Z,7.3
2019-01-08T17:44:50.198Z,8.7
2019-01-08T17:46:49.532Z,8.7
2019-01-08T17:48:49.459Z,9.9
2019-01-08T17:50:49.472Z,12.0
2019-01-08T17:52:49.482Z,10.4
2019-01-08T17:54:49.534Z,8.4
2019-01-08T17:56:49.753Z,8.4
2019-01-08T17:58:49.754Z,8.7
2019-01-08T18:00:49.773Z,8.7
2019-01-08T18:02:49.702Z,7.4
2019-01-08T18:04:49.989Z,5.3
2019-01-08T18:06:50.247Z,5.3
2019-01-08T18:08:50.258Z,9.5
2019-01-08T18:10:50.212Z,7.2
2019-01-08T18:12:50.198Z,8.5
2019-01-08T18:14:50.359Z,8.5
2019-01-08T18:16:49.599Z,8.7
2019-01-08T18:18:49.697Z,8.7
2019-01-08T18:20:49.811Z,5.6
2019-01-08T18:22:50.000Z,5.5
2019-01-08T18:24:50.058Z,5.5
2019-01-08T18:26:50.368Z,6.5
2019-01-08T18:28:49.480Z,8.5
2019-01-08T18:30:49.611Z,8.5
2019-01-08T18:32:49.759Z,5.8
2019-01-08T18:34:50.057Z,5.8
2019-01-08T18:36:50.207Z,5.6
2019-01-08T18:38:50.261Z,6.9
2019-01-08T18:40:50.215Z,8.0
2019-01-08T18:42:50.160Z,8.0
2019-01-08T18:44:50.100Z,5.0
2019-01-08T18:46:50.380Z,4.5
2019-01-08T18:48:50.281Z,6.1
2019-01-08T18:50:50.271Z,8.0
2019-01-08T18:52:49.643Z,8.0
2019-01-08T18:54:49.989Z,6.2
2019-01-08T18:56:49.462Z,5.0
2019-01-08T18:58:49.620Z,6.9
2019-01-08T19:00:49.664Z,6.9
2019-01-08T19:02:49.745Z,7.6
2019-01-08T19:04:50.206Z,5.6
2019-01-08T19:06:50.297Z,7.1
2019-01-08T19:08:50.334Z,7.1
2019-01-08T19:10:49.725Z,6.0
2019-01-08T19:12:49.673Z,6.0
2019-01-08T19:14:49.772Z,7.1
2019-01-08T19:16:50.267Z,8.5
2019-01-08T19:18:50.322Z,8.5
2019-01-08T19:20:50.348Z,8.8
2019-01-08T19:22:49.545Z,8.8
2019-01-08T19:24:50.814Z,7.4
2019-01-08T19:26:50.230Z,8.1
2019-01-08T19:28:50.197Z,5.2
2019-01-08T19:30:50.242Z,5.2
2019-01-08T19:32:50.200Z,8.2
2019-01-08T19:34:49.447Z,9.3
2019-01-08T19:36:49.518Z,9.3
2019-01-08T19:38:49.563Z,8.2
2019-01-08T19:40:49.509Z,8.2
2019-01-08T19:42:49.551Z,7.5
2019-01-08T19:44:49.563Z,9.1
2019-01-08T19:46:49.694Z,10.4
2019-01-08T19:48:49.594Z,8.1
2019-01-08T19:50:49.585Z,8.1
2019-01-08T19:52:49.670Z,10.9
2019-01-08T19:54:49.662Z,8.8
2019-01-08T19:56:49.996Z,10.5
2019-01-08T19:58:49.989Z,10.3
2019-01-08T20:00:50.012Z,10.3
2019-01-08T20:02:50.059Z,8.2
2019-01-08T20:04:50.450Z,7.9
2019-01-08T20:06:49.623Z,8.4
2019-01-08T20:08:49.723Z,6.8
2019-01-08T20:10:49.710Z,6.8
2019-01-08T20:12:49.702Z,8.5
2019-01-08T20:14:49.693Z,10.7
2019-01-08T20:16:49.990Z,7.0
2019-01-08T20:18:50.046Z,7.0
2019-01-08T20:20:50.019Z,4.7
2019-01-08T20:22:50.034Z,8.4
2019-01-08T20:24:50.045Z,5.1
2019-01-08T20:26:50.085Z,8.8
2019-01-08T20:28:50.111Z,8.8
2019-01-08T20:30:50.164Z,6.2
2019-01-08T20:32:50.187Z,7.0
2019-01-08T20:34:49.442Z,7.0
2019-01-08T20:36:49.615Z,5.9
2019-01-08T20:38:49.663Z,7.3
2019-01-08T20:40:49.689Z,7.5
2019-01-08T20:42:49.603Z,6.1
2019-01-08T20:44:49.749Z,5.7
2019-01-08T20:46:50.096Z,9.4
2019-01-08T20:48:50.342Z,5.2
2019-01-08T20:50:50.364Z,5.2
2019-01-08T20:52:50.345Z,6.9
2019-01-08T20:54:50.383Z,8.7
2019-01-08T20:56:49.601Z,9.0
2019-01-08T20:58:49.617Z,9.0
2019-01-08T21:00:49.580Z,8.4
2019-01-08T21:02:49.650Z,6.6
2019-01-08T21:04:50.069Z,6.8
2019-01-08T21:06:50.379Z,6.8
2019-01-08T21:08:49.482Z,9.0
2019-01-08T21:10:49.586Z,7.9
2019-01-08T21:12:49.648Z,9.4
2019-01-08T21:14:49.671Z,7.5
2019-01-08T21:16:49.889Z,4.8
2019-01-08T21:18:49.910Z,4.8
2019-01-08T21:20:50.032Z,5.4
2019-01-08T21:22:50.107Z,6.4
2019-01-08T21:24:50.084Z,7.0
2019-01-08T21:26:50.374Z,7.0
2019-01-08T21:28:50.322Z,5.4
2019-01-08T21:30:50.334Z,5.7
2019-01-08T21:32:50.322Z,4.6
2019-01-08T21:34:49.750Z,5.7
2019-01-08T21:36:49.841Z,5.7
2019-01-08T21:38:49.865Z,6.3
2019-01-08T21:40:49.916Z,6.1
2019-01-08T21:42:49.949Z,6.1
2019-01-08T21:44:49.887Z,8.6
2019-01-08T21:46:50.030Z,8.6
2019-01-08T21:48:50.045Z,7.6
2019-01-08T21:50:50.068Z,7.4
2019-01-08T21:52:50.167Z,5.8
2019-01-08T21:54:50.126Z,5.8
2019-01-08T21:56:50.206Z,6.7
2019-01-08T21:58:50.171Z,8.7
2019-01-08T22:00:50.136Z,8.9
2019-01-08T22:02:50.154Z,7.6
2019-01-08T22:04:53.084Z,7.6
2019-01-08T22:06:49.706Z,7.6
2019-01-08T22:08:49.845Z,9.9
2019-01-08T22:10:49.835Z,6.6
2019-01-08T22:12:49.838Z,8.5
2019-01-08T22:14:49.853Z,9.0
2019-01-08T22:16:50.001Z,9.0
2019-01-08T22:18:50.071Z,8.0
2019-01-08T22:20:50.049Z,8.0
2019-01-08T22:22:52.660Z,4.4
2019-01-08T22:24:49.942Z,4.4
2019-01-08T22:26:50.044Z,9.6
2019-01-08T22:28:50.047Z,10.5
2019-01-08T22:30:50.050Z,8.5
2019-01-08T22:32:50.024Z,8.5
2019-01-08T22:34:50.289Z,8.1
2019-01-08T22:36:49.456Z,9.8
2019-01-08T22:38:50.528Z,9.5
2019-01-08T22:40:49.681Z,9.5
2019-01-08T22:42:49.725Z,10.7
2019-01-08T22:44:49.678Z,10.7
2019-01-08T22:46:49.857Z,12.1
2019-01-08T22:48:49.820Z,10.2
2019-01-08T22:50:49.782Z,8.9
2019-01-08T22:52:49.909Z,9.3
2019-01-08T22:54:49.925Z,9.3
2019-01-08T22:56:50.144Z,9.6
2019-01-08T22:58:50.108Z,8.1
2019-01-08T23:00:50.172Z,9.1
2019-01-08T23:02:50.104Z,9.1
2019-01-08T23:04:49.679Z,8.1
2019-01-08T23:06:49.957Z,9.5
2019-01-08T23:08:49.994Z,9.0
2019-01-08T23:10:49.997Z,8.1
2019-01-08T23:12:49.977Z,8.1
2019-01-08T23:14:50.000Z,9.1
2019-01-08T23:16:50.132Z,11.8
2019-01-08T23:18:50.241Z,8.5
2019-01-08T23:20:50.249Z,9.7
2019-01-08T23:22:50.279Z,9.7
2019-01-08T23:24:50.305Z,4.7
2019-01-08T23:26:49.499Z,6.2
2019-01-08T23:28:49.612Z,6.2
2019-01-08T23:30:49.566Z,5.8
2019-01-08T23:32:49.567Z,6.9
2019-01-08T23:34:50.024Z,6.3
2019-01-08T23:36:50.264Z,6.1
2019-01-08T23:38:50.302Z,6.1
2019-01-08T23:40:50.329Z,8.2
2019-01-08T23:42:49.476Z,9.2
2019-01-08T23:44:49.450Z,8.0
2019-01-08T23:46:49.672Z,8.4
2019-01-08T23:48:49.620Z,8.6
2019-01-08T23:50:49.614Z,8.6
2019-01-08T23:52:49.641Z,8.4
2019-01-08T23:54:49.645Z,7.0
2019-01-08T23:56:49.756Z,10.0
2019-01-08T23:58:49.759Z,9.3
